createdAt,value
2018-04-08T00:02:26.045Z,13.21
2018-04-08T00:04:53.551Z,13.35
2018-04-08T00:07:20.957Z,13.44
2018-04-08T00:09:48.362Z,13.43
2018-04-08T00:12:15.763Z,13.37
2018-04-08T00:14:43.154Z,13.32
2018-04-08T00:17:10.555Z,13.16
2018-04-08T00:19:37.951Z,13.06
2018-04-08T00:22:05.353Z,13.04
2018-04-08T00:24:32.750Z,13.01
2018-04-08T00:27:00.146Z,12.84
2018-04-08T00:29:27.537Z,12.87
2018-04-08T00:31:54.942Z,12.81
2018-04-08T00:34:22.338Z,12.83
2018-04-08T00:36:49.743Z,12.77
2018-04-08T00:39:17.142Z,12.74
2018-04-08T00:41:44.639Z,12.66
2018-04-08T00:44:12.031Z,12.70
2018-04-08T00:46:39.552Z,12.82
2018-04-08T00:49:06.947Z,12.77
2018-04-08T00:51:34.347Z,12.77
2018-04-08T00:54:13.607Z,12.82
2018-04-08T00:56:41.007Z,12.76
2018-04-08T00:59:08.505Z,12.67
2018-04-08T01:01:35.966Z,12.68
2018-04-08T01:04:03.420Z,12.65
2018-04-08T01:06:30.878Z,12.59
2018-04-08T01:08:58.334Z,12.51
2018-04-08T01:11:25.786Z,12.50
2018-04-08T01:13:53.183Z,12.47
2018-04-08T01:16:20.603Z,12.50
2018-04-08T01:18:48.014Z,12.48
2018-04-08T01:21:15.416Z,12.36
2018-04-08T01:23:42.817Z,12.42
2018-04-08T01:26:10.223Z,12.36
2018-04-08T01:28:37.636Z,12.29
2018-04-08T01:31:05.059Z,12.23
2018-04-08T01:33:32.582Z,12.28
2018-04-08T01:35:59.974Z,12.21
2018-04-08T01:38:27.375Z,12.08
2018-04-08T01:40:54.771Z,11.99
2018-04-08T01:43:22.190Z,12.05
2018-04-08T01:45:49.586Z,12.08
2018-04-08T01:48:17.201Z,12.04
2018-04-08T01:50:44.594Z,12.05
2018-04-08T01:53:12.059Z,11.95
2018-04-08T01:55:39.454Z,12.02
2018-04-08T01:58:06.850Z,11.89
2018-04-08T02:00:34.249Z,11.78
2018-04-08T02:03:01.721Z,11.73
2018-04-08T02:05:29.133Z,11.65
2018-04-08T02:07:56.559Z,11.62
2018-04-08T02:10:24.046Z,11.65
2018-04-08T02:12:51.450Z,11.64
2018-04-08T02:15:18.843Z,11.70
2018-04-08T02:17:46.315Z,11.75
2018-04-08T02:20:13.714Z,11.77
2018-04-08T02:22:42.067Z,11.81
2018-04-08T02:25:09.450Z,11.73
2018-04-08T02:27:36.962Z,11.61
2018-04-08T02:30:04.452Z,11.65
2018-04-08T02:32:31.887Z,11.57
2018-04-08T02:34:59.283Z,11.66
2018-04-08T02:37:26.686Z,11.61
2018-04-08T02:39:55.107Z,11.59
2018-04-08T02:42:22.527Z,11.53
2018-04-08T02:44:49.924Z,11.49
2018-04-08T02:47:17.327Z,11.59
2018-04-08T02:49:44.724Z,11.72
2018-04-08T02:52:12.132Z,11.77
2018-04-08T02:54:39.538Z,11.75
2018-04-08T02:57:06.935Z,11.70
2018-04-08T02:59:34.336Z,11.66
2018-04-08T03:02:01.842Z,11.61
2018-04-08T03:04:29.242Z,11.61
2018-04-08T03:06:56.642Z,11.53
2018-04-08T03:09:24.044Z,11.56
2018-04-08T03:11:51.468Z,11.48
2018-04-08T03:14:18.919Z,11.46
2018-04-08T03:16:46.310Z,11.50
2018-04-08T03:19:13.713Z,11.60
2018-04-08T03:21:41.114Z,11.47
2018-04-08T03:24:08.549Z,11.44
2018-04-08T03:26:36.002Z,11.43
2018-04-08T03:29:03.470Z,11.33
2018-04-08T03:31:30.959Z,11.26
2018-04-08T03:33:58.358Z,11.22
2018-04-08T03:36:25.749Z,11.25
2018-04-08T03:38:53.231Z,11.33
2018-04-08T03:41:20.643Z,11.35
2018-04-08T03:43:48.098Z,11.38
2018-04-08T03:46:15.555Z,11.44
2018-04-08T03:48:42.955Z,11.45
2018-04-08T03:51:10.350Z,11.44
2018-04-08T03:53:37.798Z,11.44
2018-04-08T03:56:05.289Z,11.40
2018-04-08T03:58:32.735Z,11.38
2018-04-08T04:01:00.143Z,11.37
2018-04-08T04:03:27.566Z,11.32
2018-04-08T04:05:54.971Z,11.32
2018-04-08T04:08:22.373Z,11.25
2018-04-08T04:10:49.767Z,11.23
2018-04-08T04:13:17.168Z,11.14
2018-04-08T04:15:44.568Z,11.08
2018-04-08T04:18:23.966Z,11.00
2018-04-08T04:21:03.176Z,10.92
2018-04-08T04:23:42.399Z,10.88
2018-04-08T04:26:21.434Z,10.80
2018-04-08T04:28:48.835Z,10.74
2018-04-08T04:31:16.237Z,10.71
2018-04-08T04:33:43.631Z,10.71
2018-04-08T04:36:11.094Z,10.69
2018-04-08T04:38:38.543Z,10.74
2018-04-08T04:41:05.939Z,10.66
2018-04-08T04:43:33.405Z,10.48
2018-04-08T04:46:00.792Z,10.50
2018-04-08T04:48:28.207Z,10.36
2018-04-08T04:50:55.598Z,10.46
2018-04-08T04:53:23.005Z,10.51
2018-04-08T04:55:50.399Z,10.45
2018-04-08T04:58:17.826Z,10.57
2018-04-08T05:00:45.219Z,10.62
2018-04-08T05:03:12.625Z,10.65
2018-04-08T05:05:40.011Z,10.75
2018-04-08T05:08:07.442Z,10.78
2018-04-08T05:10:34.926Z,10.89
2018-04-08T05:13:02.302Z,11.11
2018-04-08T05:15:29.706Z,11.41
2018-04-08T05:17:57.107Z,11.79
2018-04-08T05:20:24.526Z,12.28
2018-04-08T05:22:51.982Z,12.83
2018-04-08T05:25:19.393Z,13.46
2018-04-08T05:27:46.788Z,14.18
2018-04-08T05:30:14.244Z,14.81
2018-04-08T05:32:41.622Z,15.44
2018-04-08T05:35:09.018Z,16.18
2018-04-08T05:37:36.517Z,17.02
2018-04-08T05:40:03.975Z,17.88
2018-04-08T05:42:31.379Z,18.58
2018-04-08T05:44:58.778Z,19.42
2018-04-08T05:47:26.208Z,20.30
2018-04-08T05:49:53.606Z,21.17
2018-04-08T05:52:21.003Z,22.11
2018-04-08T05:54:48.406Z,22.94
2018-04-08T05:57:15.802Z,23.35
2018-04-08T05:59:43.206Z,23.95
2018-04-08T06:02:10.598Z,24.34
2018-04-08T06:04:38.000Z,25.06
2018-04-08T06:07:05.390Z,25.79
2018-04-08T06:09:32.789Z,26.40
2018-04-08T06:12:00.222Z,26.97
2018-04-08T06:14:27.710Z,27.41
2018-04-08T06:16:55.137Z,27.73
2018-04-08T06:19:22.507Z,28.02
2018-04-08T06:21:49.976Z,27.75
2018-04-08T06:24:17.374Z,26.81
2018-04-08T06:26:44.805Z,26.13
2018-04-08T06:29:12.194Z,25.99
2018-04-08T06:31:39.599Z,25.77
2018-04-08T06:34:06.999Z,26.12
2018-04-08T06:36:34.398Z,26.21
2018-04-08T06:39:01.791Z,26.56
2018-04-08T06:41:29.195Z,26.19
2018-04-08T06:43:56.599Z,26.30
2018-04-08T06:46:24.031Z,26.92
2018-04-08T06:48:51.427Z,27.14
2018-04-08T06:51:18.944Z,28.11
2018-04-08T06:53:46.398Z,28.94
2018-04-08T06:56:13.795Z,29.17
2018-04-08T06:58:41.206Z,28.73
2018-04-08T07:01:08.606Z,28.74
2018-04-08T07:03:36.007Z,28.42
2018-04-08T07:06:03.514Z,29.04
2018-04-08T07:08:30.934Z,29.51
2018-04-08T07:10:58.322Z,29.03
2018-04-08T07:13:25.727Z,29.08
2018-04-08T07:15:53.199Z,29.46
2018-04-08T07:18:20.651Z,29.38
2018-04-08T07:20:47.999Z,29.52
2018-04-08T07:23:15.476Z,30.00
2018-04-08T07:25:42.871Z,30.49
2018-04-08T07:28:10.276Z,30.48
2018-04-08T07:30:37.743Z,30.18
2018-04-08T07:33:05.163Z,30.12
2018-04-08T07:35:32.559Z,30.34
2018-04-08T07:37:59.990Z,30.38
2018-04-08T07:40:27.458Z,30.31
2018-04-08T07:42:54.858Z,30.43
2018-04-08T07:45:22.278Z,29.95
2018-04-08T07:47:49.678Z,29.84
2018-04-08T07:50:17.070Z,30.02
2018-04-08T07:52:44.466Z,30.43
2018-04-08T07:55:11.863Z,29.76
2018-04-08T07:57:39.267Z,30.11
2018-04-08T08:00:06.662Z,30.43
2018-04-08T08:02:34.063Z,31.10
2018-04-08T08:05:01.482Z,31.08
2018-04-08T08:07:28.892Z,30.47
2018-04-08T08:09:56.286Z,30.25
2018-04-08T08:12:23.794Z,30.08
2018-04-08T08:14:51.247Z,30.07
2018-04-08T08:17:18.708Z,30.47
2018-04-08T08:19:46.106Z,29.53
2018-04-08T08:22:13.511Z,29.14
2018-04-08T08:24:41.061Z,29.11
2018-04-08T08:27:08.447Z,29.40
2018-04-08T08:29:35.849Z,29.64
2018-04-08T08:32:03.251Z,29.58
2018-04-08T08:34:30.646Z,29.63
2018-04-08T08:36:58.039Z,28.77
2018-04-08T08:39:25.534Z,29.07
2018-04-08T08:41:52.922Z,29.68
2018-04-08T08:44:20.327Z,29.70
2018-04-08T08:46:47.793Z,29.77
2018-04-08T08:49:15.250Z,29.72
2018-04-08T08:51:42.704Z,29.66
2018-04-08T08:54:10.107Z,29.59
2018-04-08T08:56:37.495Z,29.67
2018-04-08T08:59:04.967Z,29.99
2018-04-08T09:01:32.366Z,29.64
2018-04-08T09:03:59.770Z,29.97
2018-04-08T09:06:27.238Z,30.04
2018-04-08T09:08:54.638Z,29.66
2018-04-08T09:11:22.036Z,29.05
2018-04-08T09:13:49.511Z,28.84
2018-04-08T09:16:16.907Z,29.09
2018-04-08T09:18:54.218Z,28.67
2018-04-08T09:24:27.214Z,28.60
2018-04-08T09:26:54.607Z,28.50
2018-04-08T09:29:22.006Z,28.45
2018-04-08T09:31:49.426Z,28.42
2018-04-08T09:34:16.826Z,28.08
2018-04-08T09:36:44.240Z,27.89
2018-04-08T09:39:11.693Z,28.20
2018-04-08T09:41:39.154Z,28.36
2018-04-08T09:44:06.549Z,28.06
2018-04-08T09:46:33.965Z,27.08
2018-04-08T09:49:01.363Z,27.31
2018-04-08T09:51:28.763Z,27.70
2018-04-08T09:53:56.159Z,27.92
2018-04-08T09:56:23.594Z,28.25
2018-04-08T09:58:50.982Z,28.31
2018-04-08T10:04:19.301Z,28.69
2018-04-08T10:06:46.703Z,28.77
2018-04-08T10:09:14.118Z,28.64
2018-04-08T10:11:41.567Z,28.25
2018-04-08T10:14:08.959Z,28.43
2018-04-08T10:16:36.362Z,28.24
2018-04-08T10:19:03.763Z,28.16
2018-04-08T10:21:31.168Z,28.30
2018-04-08T10:23:58.559Z,28.66
2018-04-08T10:26:26.014Z,28.53
2018-04-08T10:28:53.406Z,28.01
2018-04-08T10:31:20.830Z,27.80
2018-04-08T10:33:48.227Z,28.03
2018-04-08T10:36:15.647Z,27.50
2018-04-08T10:38:43.111Z,27.29
2018-04-08T10:41:10.503Z,27.19
2018-04-08T10:43:37.895Z,27.00
2018-04-08T10:46:05.357Z,27.28
2018-04-08T10:48:32.738Z,27.71
2018-04-08T10:51:00.143Z,27.88
2018-04-08T10:53:27.530Z,28.35
2018-04-08T10:55:54.932Z,28.41
2018-04-08T10:58:22.422Z,28.03
2018-04-08T11:00:49.823Z,28.31
2018-04-08T11:03:17.222Z,28.18
2018-04-08T11:05:44.690Z,27.94
2018-04-08T11:08:12.155Z,27.76
2018-04-08T11:10:39.559Z,27.42
2018-04-08T11:13:06.946Z,27.65
2018-04-08T11:15:34.342Z,27.41
2018-04-08T11:18:01.739Z,27.23
2018-04-08T11:20:29.150Z,27.32
2018-04-08T11:22:56.564Z,27.15
2018-04-08T11:25:23.962Z,27.16
2018-04-08T11:27:51.441Z,26.91
2018-04-08T11:30:18.843Z,26.90
2018-04-08T11:32:46.254Z,26.79
2018-04-08T11:35:13.656Z,27.05
2018-04-08T11:37:41.059Z,27.43
2018-04-08T11:40:08.490Z,27.65
2018-04-08T11:42:35.890Z,27.73
2018-04-08T11:45:03.289Z,27.57
2018-04-08T11:47:30.711Z,27.52
2018-04-08T11:49:58.115Z,27.24
2018-04-08T11:52:25.557Z,27.09
2018-04-08T11:54:52.902Z,26.95
2018-04-08T11:57:20.314Z,27.04
2018-04-08T11:59:47.734Z,27.16
2018-04-08T12:02:15.135Z,27.46
2018-04-08T12:04:42.550Z,27.55
2018-04-08T12:07:10.012Z,27.64
2018-04-08T12:09:37.462Z,27.53
2018-04-08T12:12:04.922Z,27.95
2018-04-08T12:14:32.318Z,27.99
2018-04-08T12:16:59.734Z,28.11
2018-04-08T12:19:27.126Z,28.35
2018-04-08T12:21:54.522Z,27.77
2018-04-08T12:24:21.932Z,27.76
2018-04-08T12:26:49.321Z,27.63
2018-04-08T12:29:16.711Z,27.65
2018-04-08T12:31:44.114Z,27.87
2018-04-08T12:34:11.510Z,27.94
2018-04-08T12:36:38.902Z,27.83
2018-04-08T12:39:06.336Z,27.64
2018-04-08T12:41:33.730Z,27.68
2018-04-08T12:44:01.135Z,27.90
2018-04-08T12:46:28.536Z,28.10
2018-04-08T12:48:55.930Z,28.44
2018-04-08T12:51:23.428Z,28.84
2018-04-08T12:53:50.816Z,28.97
2018-04-08T12:56:18.243Z,29.23
2018-04-08T12:58:45.694Z,28.96
2018-04-08T13:01:13.150Z,29.25
2018-04-08T13:03:40.610Z,29.08
2018-04-08T13:06:08.002Z,29.01
2018-04-08T13:08:36.287Z,28.92
2018-04-08T13:11:03.683Z,28.98
2018-04-08T13:13:31.070Z,28.68
2018-04-08T13:15:58.468Z,28.60
2018-04-08T13:18:26.846Z,28.38
2018-04-08T13:20:54.236Z,28.29
2018-04-08T13:23:21.619Z,28.77
2018-04-08T13:25:49.061Z,28.72
2018-04-08T13:28:16.447Z,28.41
2018-04-08T13:30:43.875Z,28.45
2018-04-08T13:33:11.262Z,28.49
2018-04-08T13:35:38.655Z,28.56
2018-04-08T13:38:06.147Z,28.87
2018-04-08T13:40:33.594Z,29.02
2018-04-08T13:43:00.986Z,28.99
2018-04-08T13:45:28.406Z,29.08
2018-04-08T13:47:55.823Z,29.11
2018-04-08T13:50:23.206Z,29.21
2018-04-08T13:52:50.642Z,29.77
2018-04-08T13:55:18.026Z,29.83
2018-04-08T13:57:45.414Z,29.87
2018-04-08T14:00:12.849Z,29.69
2018-04-08T14:02:40.239Z,29.84
2018-04-08T14:05:07.870Z,30.12
2018-04-08T14:07:36.196Z,30.32
2018-04-08T14:10:03.585Z,30.18
2018-04-08T14:12:30.975Z,30.08
2018-04-08T14:14:58.420Z,30.05
2018-04-08T14:17:25.814Z,29.96
2018-04-08T14:19:53.195Z,29.60
2018-04-08T14:22:20.682Z,29.38
2018-04-08T14:24:48.143Z,29.51
2018-04-08T14:27:15.539Z,29.68
2018-04-08T14:29:42.926Z,29.95
2018-04-08T14:32:10.323Z,29.97
2018-04-08T14:34:37.734Z,29.68
2018-04-08T14:37:05.123Z,29.60
2018-04-08T14:39:32.542Z,29.61
2018-04-08T14:42:00.061Z,29.56
2018-04-08T14:44:27.442Z,29.53
2018-04-08T14:46:54.920Z,29.83
2018-04-08T14:49:22.374Z,29.96
2018-04-08T14:51:49.762Z,29.83
2018-04-08T14:54:17.190Z,29.93
2018-04-08T14:56:44.573Z,29.67
2018-04-08T14:59:11.999Z,29.49
2018-04-08T15:01:46.661Z,29.03
2018-04-08T15:04:06.808Z,29.07
2018-04-08T15:06:34.198Z,29.27
2018-04-08T15:09:01.595Z,29.08
2018-04-08T15:11:28.986Z,28.61
2018-04-08T15:13:56.386Z,28.67
2018-04-08T15:16:23.778Z,28.70
2018-04-08T15:18:51.166Z,28.82
2018-04-08T15:21:18.559Z,28.57
2018-04-08T15:23:45.959Z,28.70
2018-04-08T15:26:13.371Z,28.94
2018-04-08T15:28:41.802Z,28.77
2018-04-08T15:31:09.198Z,28.56
2018-04-08T15:33:36.594Z,28.45
2018-04-08T15:36:03.982Z,28.20
2018-04-08T15:38:31.385Z,28.06
2018-04-08T15:40:58.778Z,27.95
2018-04-08T15:43:26.175Z,27.66
2018-04-08T15:45:53.566Z,27.80
2018-04-08T15:48:20.962Z,27.91
2018-04-08T15:50:48.402Z,27.87
2018-04-08T15:53:15.795Z,27.94
2018-04-08T15:55:43.267Z,27.82
2018-04-08T15:58:10.711Z,27.58
2018-04-08T16:00:38.134Z,27.62
2018-04-08T16:03:05.598Z,27.43
2018-04-08T16:05:32.993Z,27.24
2018-04-08T16:08:00.385Z,27.29
2018-04-08T16:10:27.775Z,27.40
2018-04-08T16:12:55.164Z,27.72
2018-04-08T16:15:22.576Z,27.73
2018-04-08T16:17:49.959Z,27.74
2018-04-08T16:20:17.355Z,27.72
2018-04-08T16:22:45.704Z,27.43
2018-04-08T16:25:13.103Z,27.26
2018-04-08T16:27:40.557Z,27.08
2018-04-08T16:30:07.931Z,26.80
2018-04-08T16:32:35.318Z,26.66
2018-04-08T16:35:02.712Z,26.64
2018-04-08T16:37:30.096Z,26.76
2018-04-08T16:39:57.483Z,26.87
2018-04-08T16:42:24.905Z,26.94
2018-04-08T16:44:52.367Z,26.90
2018-04-08T16:47:19.754Z,26.70
2018-04-08T16:49:47.146Z,26.48
2018-04-08T16:52:14.595Z,26.27
2018-04-08T16:54:42.007Z,26.32
2018-04-08T16:57:09.403Z,26.42
2018-04-08T16:59:36.790Z,26.36
2018-04-08T17:02:04.178Z,26.29
2018-04-08T17:04:31.621Z,26.22
2018-04-08T17:06:58.983Z,26.05
2018-04-08T17:09:26.420Z,25.98
2018-04-08T17:11:53.869Z,25.94
2018-04-08T17:14:21.309Z,25.72
2018-04-08T17:16:48.770Z,25.65
2018-04-08T17:19:16.158Z,25.71
2018-04-08T17:21:43.549Z,25.42
2018-04-08T17:24:10.930Z,25.46
2018-04-08T17:26:38.336Z,25.19
2018-04-08T17:29:05.727Z,24.67
2018-04-08T17:31:33.127Z,24.41
2018-04-08T17:34:00.527Z,24.04
2018-04-08T17:36:27.914Z,23.84
2018-04-08T17:38:55.397Z,23.82
2018-04-08T17:41:22.785Z,23.63
2018-04-08T17:43:50.453Z,23.43
2018-04-08T17:46:17.842Z,23.24
2018-04-08T17:48:45.322Z,23.03
2018-04-08T17:51:12.723Z,22.98
2018-04-08T17:53:40.111Z,22.75
2018-04-08T17:56:07.511Z,22.47
2018-04-08T17:58:34.912Z,22.39
2018-04-08T18:01:02.358Z,22.31
2018-04-08T18:03:29.699Z,22.11
2018-04-08T18:05:57.103Z,21.92
2018-04-08T18:08:24.493Z,21.88
2018-04-08T18:10:51.900Z,21.71
2018-04-08T18:13:19.293Z,21.70
2018-04-08T18:15:46.686Z,21.65
2018-04-08T18:18:14.097Z,21.59
2018-04-08T18:20:41.560Z,21.58
2018-04-08T18:23:08.970Z,21.49
2018-04-08T18:25:36.359Z,21.33
2018-04-08T18:28:03.757Z,21.11
2018-04-08T18:30:31.179Z,21.05
2018-04-08T18:32:58.585Z,21.06
2018-04-08T18:35:26.111Z,21.03
2018-04-08T18:37:53.517Z,20.99
2018-04-08T18:40:20.903Z,21.01
2018-04-08T18:42:48.306Z,21.01
2018-04-08T18:45:15.739Z,21.14
2018-04-08T18:47:43.095Z,20.87
2018-04-08T18:50:10.482Z,20.73
2018-04-08T18:52:37.874Z,20.62
2018-04-08T18:55:05.285Z,20.52
2018-04-08T18:57:32.795Z,20.51
2018-04-08T19:00:00.198Z,20.47
2018-04-08T19:02:27.595Z,20.37
2018-04-08T19:04:55.038Z,20.37
2018-04-08T19:07:22.523Z,20.43
2018-04-08T19:09:49.914Z,20.36
2018-04-08T19:12:17.314Z,20.26
2018-04-08T19:14:50.282Z,20.21
2018-04-08T19:17:23.175Z,19.95
2018-04-08T19:19:50.575Z,19.99
2018-04-08T19:22:17.988Z,19.99
2018-04-08T19:24:45.434Z,19.99
2018-04-08T19:27:18.404Z,19.99
2018-04-08T19:29:45.847Z,19.78
2018-04-08T19:32:13.338Z,19.66
2018-04-08T19:34:40.732Z,19.49
2018-04-08T19:37:08.139Z,19.46
2018-04-08T19:39:35.546Z,19.53
2018-04-08T19:42:02.943Z,19.51
2018-04-08T19:44:30.343Z,19.51
2018-04-08T19:46:57.780Z,19.41
2018-04-08T19:49:25.222Z,19.38
2018-04-08T19:51:52.722Z,19.38
2018-04-08T19:54:20.110Z,19.31
2018-04-08T19:56:47.515Z,19.33
2018-04-08T19:59:14.910Z,19.43
2018-04-08T20:01:42.419Z,19.38
2018-04-08T20:04:09.815Z,19.28
2018-04-08T20:06:37.210Z,19.11
2018-04-08T20:09:04.683Z,18.86
2018-04-08T20:11:32.153Z,18.79
2018-04-08T20:13:59.543Z,18.70
2018-04-08T20:16:26.943Z,18.57
2018-04-08T20:18:54.419Z,18.47
2018-04-08T20:21:21.831Z,18.40
2018-04-08T20:23:49.254Z,18.37
2018-04-08T20:26:16.643Z,18.38
2018-04-08T20:28:44.046Z,18.37
2018-04-08T20:31:11.505Z,18.25
2018-04-08T20:33:38.942Z,18.23
2018-04-08T20:36:06.344Z,18.18
2018-04-08T20:38:33.744Z,18.12
2018-04-08T20:41:01.168Z,17.95
2018-04-08T20:43:28.569Z,17.83
2018-04-08T20:45:55.974Z,17.81
2018-04-08T20:48:23.479Z,17.78
2018-04-08T20:50:50.875Z,17.66
2018-04-08T20:53:18.325Z,17.62
2018-04-08T20:55:45.739Z,17.57
2018-04-08T20:58:13.138Z,17.59
2018-04-08T21:00:40.566Z,17.64
2018-04-08T21:03:08.018Z,17.65
2018-04-08T21:05:35.488Z,17.63
2018-04-08T21:08:02.903Z,17.54
2018-04-08T21:10:30.303Z,17.35
2018-04-08T21:12:57.750Z,17.25
2018-04-08T21:15:25.217Z,17.28
2018-04-08T21:17:52.607Z,17.27
2018-04-08T21:20:20.007Z,17.30
2018-04-08T21:22:47.471Z,17.14
2018-04-08T21:25:14.872Z,17.11
2018-04-08T21:27:42.290Z,17.02
2018-04-08T21:30:09.689Z,16.98
2018-04-08T21:32:37.092Z,16.92
2018-04-08T21:35:04.496Z,17.08
2018-04-08T21:37:31.906Z,16.97
2018-04-08T21:39:59.309Z,16.96
2018-04-08T21:42:26.700Z,17.07
2018-04-08T21:44:54.096Z,17.00
2018-04-08T21:47:21.543Z,16.98
2018-04-08T21:49:48.931Z,17.01
2018-04-08T21:52:16.344Z,17.08
2018-04-08T21:54:43.763Z,16.98
2018-04-08T21:57:11.142Z,16.91
2018-04-08T21:59:38.611Z,16.91
2018-04-08T22:02:06.062Z,16.75
2018-04-08T22:04:33.479Z,16.83
2018-04-08T22:07:00.874Z,16.91
2018-04-08T22:09:28.355Z,16.82
2018-04-08T22:11:55.747Z,16.78
2018-04-08T22:14:23.250Z,16.74
2018-04-08T22:16:50.661Z,16.81
2018-04-08T22:19:18.061Z,16.85
2018-04-08T22:21:45.514Z,16.79
2018-04-08T22:24:12.914Z,16.74
2018-04-08T22:26:40.302Z,16.68
2018-04-08T22:29:07.707Z,16.55
2018-04-08T22:31:35.143Z,16.56
2018-04-08T22:34:02.594Z,16.43
2018-04-08T22:36:30.075Z,16.33
2018-04-08T22:38:57.473Z,16.20
2018-04-08T22:41:24.869Z,16.13
2018-04-08T22:43:52.267Z,16.05
2018-04-08T22:46:19.658Z,16.12
2018-04-08T22:48:47.062Z,16.00
2018-04-08T22:51:14.454Z,15.96
2018-04-08T22:53:41.855Z,15.91
2018-04-08T22:56:09.256Z,15.86
2018-04-08T22:58:36.647Z,15.82
2018-04-08T23:01:04.043Z,15.81
2018-04-08T23:03:31.538Z,15.73
2018-04-08T23:05:58.931Z,15.77
2018-04-08T23:08:26.351Z,15.60
2018-04-08T23:10:53.785Z,15.49
2018-04-08T23:13:21.279Z,15.47
2018-04-08T23:15:48.754Z,15.47
2018-04-08T23:18:16.126Z,15.53
2018-04-08T23:20:43.527Z,15.52
2018-04-08T23:23:10.923Z,15.50
2018-04-08T23:25:38.320Z,15.53
2018-04-08T23:28:05.711Z,15.58
2018-04-08T23:30:33.107Z,15.54
2018-04-08T23:33:00.549Z,15.59
2018-04-08T23:35:27.978Z,15.53
2018-04-08T23:37:55.368Z,15.46
2018-04-08T23:40:22.770Z,15.33
2018-04-08T23:42:50.248Z,15.36
2018-04-08T23:45:17.652Z,15.45
2018-04-08T23:47:45.058Z,15.52
2018-04-08T23:50:12.459Z,15.54
2018-04-08T23:52:39.846Z,15.53
2018-04-08T23:55:07.322Z,15.59
2018-04-08T23:57:34.783Z,15.56
